Time;durP1;ratioP1;P1;durP2;ratioP2;P2;SDS_P1;SDS_P2;PMS_P1;PMS_P2;Temp;Humidity;BMP_temperature;BMP_pressure;BME280_temperature;BME280_humidity;BME280_pressure;Samples;Min_cycle;Max_cycle;Signal;HPM_P1;HPM_P2
2021/09/21 00:00:42;;;;;;;0.40;0.40;;;13.10;99.90;;;;;;4400159;32;20490;-64
2021/09/21 00:03:08;;;;;;;1.30;0.43;;;13.00;99.90;;;;;;4399488;32;20073;-65
2021/09/21 00:05:35;;;;;;;0.55;0.50;;;13.10;99.90;;;;;;4400253;32;20161;-64
2021/09/21 00:08:00;;;;;;;0.50;0.50;;;13.10;99.90;;;;;;4399631;32;20070;-64
2021/09/21 00:10:26;;;;;;;1.90;0.47;;;13.00;99.90;;;;;;4399371;32;20506;-64
2021/09/21 00:12:52;;;;;;;0.88;0.50;;;12.90;99.90;;;;;;4399941;32;20086;-64
2021/09/21 00:15:19;;;;;;;0.43;0.40;;;13.00;99.90;;;;;;4399154;32;20069;-64
2021/09/21 00:17:46;;;;;;;0.88;0.60;;;13.00;99.90;;;;;;4399637;32;20421;-65
2021/09/21 00:20:13;;;;;;;0.40;0.40;;;13.00;99.90;;;;;;4399485;32;20062;-64
2021/09/21 00:22:40;;;;;;;0.50;0.50;;;13.00;99.90;;;;;;4399292;32;20081;-64
2021/09/21 00:25:06;;;;;;;3.20;0.40;;;13.00;99.90;;;;;;4399030;32;20463;-64
2021/09/21 00:27:32;;;;;;;0.73;0.57;;;13.00;99.90;;;;;;4398717;32;20066;-64
2021/09/21 00:29:59;;;;;;;0.50;0.50;;;13.00;99.90;;;;;;4400244;32;20439;-64
2021/09/21 00:32:25;;;;;;;0.77;0.57;;;13.00;99.90;;;;;;4386673;32;20225;-64
2021/09/21 00:34:52;;;;;;;1.58;0.75;;;12.90;99.90;;;;;;4400915;32;20424;-65
2021/09/21 00:37:17;;;;;;;0.40;0.40;;;12.90;99.90;;;;;;4400924;32;20073;-65
2021/09/21 00:39:44;;;;;;;0.40;0.40;;;12.90;99.90;;;;;;4414669;32;20146;-65
2021/09/21 00:42:12;;;;;;;0.50;0.50;;;12.90;99.90;;;;;;4388390;32;20073;-64
2021/09/21 00:44:38;;;;;;;0.30;0.30;;;12.90;99.90;;;;;;4414309;32;20415;-64
2021/09/21 00:47:05;;;;;;;0.60;0.60;;;12.80;99.90;;;;;;4414267;32;20061;-65
2021/09/21 00:49:32;;;;;;;0.75;0.75;;;12.80;99.90;;;;;;4415199;32;20510;-64
2021/09/21 00:51:58;;;;;;;0.35;0.35;;;12.70;99.90;;;;;;4415682;32;20114;-65
2021/09/21 00:54:24;;;;;;;0.35;0.35;;;12.80;99.90;;;;;;4401484;32;20504;-65
2021/09/21 00:56:49;;;;;;;0.30;0.30;;;12.90;99.90;;;;;;4414103;32;20062;-64
2021/09/21 00:59:15;;;;;;;0.62;0.62;;;12.90;99.90;;;;;;4399185;32;20064;-64
2021/09/21 01:01:41;;;;;;;2.83;0.73;;;13.00;99.90;;;;;;4413939;32;20081;-64
2021/09/21 01:04:06;;;;;;;0.30;0.30;;;12.90;99.90;;;;;;4401786;32;20103;-65
2021/09/21 01:06:33;;;;;;;0.40;0.40;;;12.90;99.90;;;;;;4401032;32;20423;-64
2021/09/21 01:08:59;;;;;;;0.30;0.30;;;12.90;99.90;;;;;;4415333;32;20081;-64
2021/09/21 01:11:24;;;;;;;0.73;0.73;;;12.80;99.90;;;;;;4387461;32;20117;-64
2021/09/21 01:13:50;;;;;;;0.62;0.60;;;12.80;99.90;;;;;;4413466;32;20120;-64
2021/09/21 01:16:16;;;;;;;19.42;2.40;;;12.80;99.90;;;;;;4415586;32;20073;-64
2021/09/21 01:18:42;;;;;;;0.50;0.50;;;12.80;99.90;;;;;;4401568;32;20069;-64
2021/09/21 01:21:11;;;;;;;3.72;1.12;;;12.80;99.90;;;;;;4413813;32;20108;-64
2021/09/21 01:23:46;;;;;;;2.20;0.88;;;12.80;99.90;;;;;;4400027;32;20077;-64
2021/09/21 01:26:11;;;;;;;1.10;0.40;;;12.70;99.90;;;;;;4413621;32;20081;-64
2021/09/21 01:28:37;;;;;;;0.75;0.50;;;12.70;99.90;;;;;;4414662;32;20085;-65
2021/09/21 01:31:02;;;;;;;1.00;0.50;;;12.70;99.90;;;;;;4400335;32;20461;-65
2021/09/21 01:33:28;;;;;;;0.88;0.40;;;12.80;99.90;;;;;;4415458;32;20128;-64
2021/09/21 01:35:53;;;;;;;0.32;0.32;;;12.70;99.90;;;;;;4400020;32;20441;-64
2021/09/21 01:38:19;;;;;;;0.40;0.40;;;12.70;99.90;;;;;;4401181;32;20152;-63
2021/09/21 01:40:44;;;;;;;0.68;0.68;;;12.70;99.90;;;;;;4413533;32;20112;-66
2021/09/21 01:43:10;;;;;;;0.43;0.43;;;12.70;99.90;;;;;;4414844;32;20085;-65
2021/09/21 01:45:36;;;;;;;1.50;0.45;;;12.70;99.90;;;;;;4415246;32;20062;-65
2021/09/21 01:48:01;;;;;;;0.60;0.60;;;12.70;99.90;;;;;;4414741;32;20080;-64
2021/09/21 01:50:33;;;;;;;0.45;0.45;;;12.70;99.90;;;;;;4414902;32;20053;-64
2021/09/21 01:53:07;;;;;;;0.57;0.57;;;12.60;99.90;;;;;;4400184;32;20448;-64
2021/09/21 02:00:46;;;;;;;0.28;0.28;;;12.60;99.90;;;;;;4413549;32;20135;-64
2021/09/21 02:03:11;;;;;;;0.50;0.50;;;12.60;99.90;;;;;;4399933;32;20070;-64
2021/09/21 02:05:37;;;;;;;4.47;0.95;;;12.60;99.90;;;;;;4413363;32;20105;-64
2021/09/21 02:08:03;;;;;;;0.50;0.50;;;12.60;99.90;;;;;;4400518;32;20086;-65
2021/09/21 02:10:28;;;;;;;1.05;0.77;;;12.50;99.90;;;;;;4413774;32;20069;-64
2021/09/21 02:12:54;;;;;;;0.40;0.40;;;12.60;99.90;;;;;;4413642;32;20077;-64
2021/09/21 02:15:21;;;;;;;0.95;0.50;;;12.50;99.90;;;;;;4414357;32;20506;-64
2021/09/21 02:17:47;;;;;;;0.50;0.50;;;12.50;99.90;;;;;;4414506;32;20062;-64
2021/09/21 02:20:14;;;;;;;4.00;0.60;;;12.50;99.90;;;;;;4400358;32;20128;-64
2021/09/21 02:22:40;;;;;;;0.65;0.40;;;12.50;99.90;;;;;;4414058;32;20120;-64
2021/09/21 02:25:06;;;;;;;5.35;0.85;;;12.50;99.90;;;;;;4415482;32;20074;-64
2021/09/21 02:27:32;;;;;;;0.32;0.32;;;12.50;99.90;;;;;;4415553;32;20064;-64
2021/09/21 02:29:58;;;;;;;0.40;0.40;;;12.50;99.90;;;;;;4402321;32;20165;-64
2021/09/21 02:32:23;;;;;;;0.40;0.40;;;12.60;99.90;;;;;;4417094;32;20357;-65
2021/09/21 02:34:49;;;;;;;1.20;0.90;;;12.60;99.90;;;;;;4416170;32;20062;-64
2021/09/21 02:37:16;;;;;;;0.32;0.32;;;12.60;99.90;;;;;;4402826;32;20070;-64
2021/09/21 02:39:42;;;;;;;1.75;0.75;;;12.50;99.90;;;;;;4400104;32;20448;-64
2021/09/21 02:42:08;;;;;;;0.95;0.50;;;12.40;99.90;;;;;;4401017;32;20069;-65
2021/09/21 02:44:34;;;;;;;0.40;0.40;;;12.40;99.90;;;;;;4401266;32;20117;-65
2021/09/21 02:47:01;;;;;;;0.40;0.40;;;12.20;99.90;;;;;;4401710;32;20066;-64
2021/09/21 02:49:26;;;;;;;1.85;0.75;;;12.30;99.90;;;;;;4400541;32;20113;-64
2021/09/21 02:51:52;;;;;;;0.30;0.30;;;12.30;99.90;;;;;;4400363;32;20069;-64
2021/09/21 02:54:18;;;;;;;0.43;0.25;;;12.30;99.90;;;;;;4399404;32;20649;-64
2021/09/21 02:56:43;;;;;;;0.30;0.30;;;12.20;99.90;;;;;;4399198;32;20082;-64
2021/09/21 02:59:08;;;;;;;0.60;0.60;;;12.20;99.90;;;;;;4400199;32;20057;-65
2021/09/21 03:01:34;;;;;;;1.25;0.73;;;12.20;99.90;;;;;;4400201;32;20421;-65
2021/09/21 03:04:06;;;;;;;0.70;0.57;;;12.20;99.90;;;;;;4401025;32;20069;-64
2021/09/21 03:06:34;;;;;;;0.47;0.47;;;12.20;99.90;;;;;;4401338;32;20232;-65
2021/09/21 03:09:10;;;;;;;0.77;0.70;;;12.20;99.90;;;;;;4400615;32;20496;-65
2021/09/21 03:11:46;;;;;;;0.73;0.47;;;12.20;99.90;;;;;;4399681;32;20085;-65
2021/09/21 03:17:18;;;;;;;0.30;0.30;;;12.20;99.90;;;;;;4400340;32;20129;-64
2021/09/21 03:19:25;;;;;;;0.80;0.50;;;12.20;99.90;;;;;;4389244;32;20093;-64
2021/09/21 03:21:53;;;;;;;0.57;0.45;;;12.20;99.90;;;;;;4401260;32;20386;-64
2021/09/21 03:24:18;;;;;;;0.47;0.43;;;12.20;99.90;;;;;;4398548;32;20063;-64
2021/09/21 03:26:44;;;;;;;0.30;0.30;;;12.20;99.90;;;;;;4399773;32;20086;-64
2021/09/21 03:29:09;;;;;;;0.57;0.45;;;12.20;99.90;;;;;;4401036;32;20046;-65
2021/09/21 03:31:35;;;;;;;3.95;1.37;;;12.30;99.90;;;;;;4400500;32;20062;-65
2021/09/21 03:34:01;;;;;;;0.60;0.60;;;12.30;99.90;;;;;;4400956;32;20117;-65
2021/09/21 03:36:27;;;;;;;0.40;0.40;;;12.20;99.90;;;;;;4387278;32;20065;-64
2021/09/21 03:38:52;;;;;;;0.43;0.40;;;12.20;99.90;;;;;;4401062;32;20058;-64
2021/09/21 03:41:18;;;;;;;0.80;0.80;;;12.30;99.90;;;;;;4398260;32;20082;-64
2021/09/21 03:43:43;;;;;;;1.27;0.40;;;12.20;99.90;;;;;;4399950;32;20091;-64
2021/09/21 03:46:09;;;;;;;0.20;0.20;;;12.20;99.90;;;;;;4399826;32;20566;-65
2021/09/21 03:48:34;;;;;;;0.28;0.28;;;12.30;99.90;;;;;;4400614;32;20062;-64
2021/09/21 03:51:00;;;;;;;1.52;0.65;;;12.40;99.90;;;;;;4399773;32;20078;-64
2021/09/21 03:53:25;;;;;;;0.30;0.30;;;12.40;99.90;;;;;;4400901;32;20086;-64
2021/09/21 03:55:51;;;;;;;0.57;0.57;;;12.30;99.90;;;;;;4400648;32;20531;-64
2021/09/21 03:58:16;;;;;;;0.40;0.40;;;12.30;99.90;;;;;;4399155;32;20073;-64
2021/09/21 04:00:42;;;;;;;2.22;0.77;;;12.20;99.90;;;;;;4400177;32;20547;-65
2021/09/21 04:03:07;;;;;;;0.40;0.40;;;12.20;99.90;;;;;;4400059;32;20082;-64
2021/09/21 04:05:33;;;;;;;0.47;0.47;;;12.20;99.90;;;;;;4400706;32;20124;-64
2021/09/21 04:07:58;;;;;;;0.45;0.45;;;12.10;99.90;;;;;;4400657;32;20062;-64
2021/09/21 04:10:24;;;;;;;1.58;0.50;;;12.20;99.90;;;;;;4399816;32;20070;-65
2021/09/21 04:12:49;;;;;;;0.50;0.50;;;12.30;99.90;;;;;;4400421;32;20074;-64
2021/09/21 04:15:15;;;;;;;0.40;0.40;;;12.30;99.90;;;;;;4400132;32;20134;-63
2021/09/21 04:17:40;;;;;;;0.30;0.30;;;12.20;99.90;;;;;;4400042;32;20396;-64
2021/09/21 04:20:07;;;;;;;0.50;0.50;;;12.20;99.90;;;;;;4399128;32;20070;-64
2021/09/21 04:22:33;;;;;;;0.95;0.90;;;12.20;99.90;;;;;;4392378;32;20071;-64
2021/09/21 04:24:58;;;;;;;0.30;0.30;;;12.20;99.90;;;;;;4397398;32;20094;-64
2021/09/21 04:27:24;;;;;;;0.50;0.50;;;12.20;99.90;;;;;;4416931;32;20069;-64
2021/09/21 04:29:54;;;;;;;0.68;0.60;;;12.20;99.90;;;;;;4430677;32;20073;-64
2021/09/21 04:32:21;;;;;;;0.60;0.60;;;12.20;99.90;;;;;;4429994;32;20057;-64
2021/09/21 04:34:48;;;;;;;0.30;0.30;;;12.20;99.90;;;;;;4429653;32;20124;-64
2021/09/21 04:37:13;;;;;;;0.30;0.30;;;12.20;99.90;;;;;;4403463;32;20061;-65
2021/09/21 04:39:41;;;;;;;0.70;0.70;;;12.20;99.90;;;;;;4417354;32;20149;-64
2021/09/21 04:42:07;;;;;;;0.30;0.30;;;12.20;99.90;;;;;;4431116;32;20423;-64
2021/09/21 04:44:33;;;;;;;0.50;0.50;;;12.20;99.90;;;;;;4430795;32;20120;-64
2021/09/21 04:46:59;;;;;;;0.22;0.22;;;12.20;99.90;;;;;;4430984;32;20121;-64
2021/09/21 04:49:24;;;;;;;0.50;0.43;;;12.20;99.90;;;;;;4429750;32;20484;-64
2021/09/21 04:51:50;;;;;;;0.80;0.80;;;12.30;99.90;;;;;;4429651;32;20077;-64
2021/09/21 04:54:15;;;;;;;1.10;0.40;;;12.20;99.90;;;;;;4414058;32;20061;-64
2021/09/21 04:56:41;;;;;;;0.32;0.32;;;12.10;99.90;;;;;;4413038;32;20062;-64
2021/09/21 04:59:06;;;;;;;0.40;0.40;;;12.20;99.90;;;;;;4399550;32;20136;-64
2021/09/21 05:01:32;;;;;;;0.70;0.50;;;12.20;99.90;;;;;;4389786;32;20201;-64
2021/09/21 05:03:57;;;;;;;8.48;3.53;;;12.20;99.90;;;;;;4404536;32;20088;-64
2021/09/21 05:06:23;;;;;;;0.37;0.37;;;12.20;99.90;;;;;;4399799;32;20061;-64
2021/09/21 05:08:49;;;;;;;0.25;0.25;;;12.10;99.90;;;;;;4404444;32;20073;-64
2021/09/21 05:11:14;;;;;;;0.60;0.60;;;12.20;99.90;;;;;;4420936;32;20083;-64
2021/09/21 05:13:40;;;;;;;1.35;0.85;;;12.10;99.90;;;;;;4401726;32;20472;-64
2021/09/21 05:16:05;;;;;;;0.30;0.30;;;12.10;99.90;;;;;;4401908;32;20073;-64
2021/09/21 05:18:32;;;;;;;0.57;0.57;;;12.10;99.90;;;;;;4395475;32;20513;-64
2021/09/21 05:20:58;;;;;;;0.30;0.30;;;12.20;99.90;;;;;;4401982;32;20134;-64
2021/09/21 05:23:23;;;;;;;0.40;0.40;;;12.30;99.90;;;;;;4426453;32;20065;-64
2021/09/21 05:25:49;;;;;;;0.40;0.40;;;12.30;99.90;;;;;;4401444;32;20129;-64
2021/09/21 05:28:15;;;;;;;0.50;0.50;;;12.40;99.90;;;;;;4397207;32;20093;-64
2021/09/21 05:30:40;;;;;;;0.43;0.40;;;12.40;99.90;;;;;;4393087;32;20101;-64
2021/09/21 05:33:08;;;;;;;0.40;0.40;;;12.30;99.90;;;;;;4385302;32;20078;-64
2021/09/21 05:35:34;;;;;;;0.50;0.50;;;12.30;99.90;;;;;;4408578;32;20077;-64
2021/09/21 05:38:00;;;;;;;0.70;0.40;;;12.20;99.90;;;;;;4406022;32;20082;-65
2021/09/21 05:40:27;;;;;;;0.70;0.70;;;12.30;99.90;;;;;;4401193;32;20353;-63
2021/09/21 05:42:52;;;;;;;0.52;0.52;;;12.20;99.90;;;;;;4409107;32;20173;-65
2021/09/21 05:45:18;;;;;;;0.55;0.52;;;12.20;99.90;;;;;;4385467;32;20249;-64
2021/09/21 05:47:44;;;;;;;0.30;0.30;;;12.20;99.90;;;;;;4396832;32;20610;-64
2021/09/21 05:50:14;;;;;;;18.00;0.70;;;12.30;99.90;;;;;;4387602;32;20156;-65
2021/09/21 05:52:40;;;;;;;0.40;0.40;;;12.30;99.90;;;;;;4387421;32;20086;-64
2021/09/21 05:55:08;;;;;;;1.15;0.43;;;12.40;99.90;;;;;;4382094;32;20187;-64
2021/09/21 05:57:34;;;;;;;1.48;0.82;;;12.40;99.90;;;;;;4395357;32;20078;-64
2021/09/21 05:59:59;;;;;;;0.60;0.37;;;12.40;99.90;;;;;;4382677;32;20425;-64
2021/09/21 06:02:25;;;;;;;0.60;0.60;;;12.40;99.90;;;;;;4389165;32;20707;-64
2021/09/21 06:04:51;;;;;;;0.95;0.73;;;12.50;99.90;;;;;;4381674;32;20134;-64
2021/09/21 06:07:18;;;;;;;0.62;0.50;;;12.50;99.90;;;;;;4396874;32;20180;-64
2021/09/21 06:09:43;;;;;;;0.65;0.55;;;12.50;99.90;;;;;;4388043;32;20530;-63
2021/09/21 06:12:09;;;;;;;0.30;0.30;;;12.40;99.90;;;;;;4387704;32;20192;-63
2021/09/21 06:14:34;;;;;;;0.40;0.40;;;12.50;99.90;;;;;;4403665;32;20567;-63
2021/09/21 06:17:00;;;;;;;0.40;0.40;;;12.60;99.90;;;;;;4398453;32;20073;-63
2021/09/21 06:19:26;;;;;;;0.60;0.60;;;12.50;99.90;;;;;;4397424;32;20073;-63
2021/09/21 06:21:52;;;;;;;1.60;0.75;;;12.50;99.90;;;;;;4398019;32;20093;-63
2021/09/21 06:24:17;;;;;;;0.30;0.30;;;12.60;99.90;;;;;;4400533;32;76469;-63
2021/09/21 06:26:43;;;;;;;3.33;1.02;;;12.60;99.90;;;;;;4397656;32;20701;-63
2021/09/21 06:29:08;;;;;;;0.43;0.43;;;12.70;99.90;;;;;;4401612;32;20542;-63
2021/09/21 06:31:34;;;;;;;0.40;0.40;;;12.70;99.90;;;;;;4400058;32;20444;-63
2021/09/21 06:33:59;;;;;;;1.55;0.77;;;12.70;99.90;;;;;;4390311;32;20078;-63
2021/09/21 06:36:25;;;;;;;1.52;0.55;;;12.80;99.90;;;;;;4386127;32;20151;-63
2021/09/21 06:38:50;;;;;;;0.85;0.85;;;12.80;99.90;;;;;;4403884;32;20078;-63
2021/09/21 06:41:16;;;;;;;4.75;1.48;;;12.80;99.90;;;;;;4401687;32;20085;-63
2021/09/21 06:43:42;;;;;;;3.55;0.68;;;12.70;99.90;;;;;;4377549;32;20074;-63
2021/09/21 06:46:07;;;;;;;0.77;0.77;;;12.80;99.90;;;;;;4395224;32;20097;-63
2021/09/21 06:48:38;;;;;;;0.95;0.60;;;12.80;99.90;;;;;;4395557;32;20397;-63
2021/09/21 06:51:04;;;;;;;2.28;0.73;;;12.90;99.90;;;;;;4381188;32;20078;-64
2021/09/21 06:53:30;;;;;;;1.80;0.57;;;12.90;99.90;;;;;;4398932;32;20767;-64
2021/09/21 06:55:55;;;;;;;3.20;1.08;;;12.90;99.90;;;;;;4385114;32;20058;-64
2021/09/21 06:58:21;;;;;;;0.40;0.40;;;12.90;99.90;;;;;;4395873;32;20081;-64
2021/09/21 07:00:46;;;;;;;0.77;0.55;;;13.00;99.90;;;;;;4392358;32;20172;-64
2021/09/21 07:03:12;;;;;;;0.40;0.40;;;13.00;99.90;;;;;;4398822;32;20065;-63
2021/09/21 07:05:38;;;;;;;0.43;0.43;;;13.10;99.90;;;;;;4388277;32;20069;-64
2021/09/21 07:08:04;;;;;;;1.12;0.75;;;13.10;99.90;;;;;;4398893;32;20098;-64
2021/09/21 07:10:29;;;;;;;2.15;0.90;;;13.20;99.90;;;;;;4385116;32;20065;-64
2021/09/21 07:12:55;;;;;;;0.37;0.37;;;13.20;99.90;;;;;;4400123;32;20066;-64
2021/09/21 07:15:22;;;;;;;0.40;0.40;;;13.30;99.90;;;;;;4404500;32;20103;-65
2021/09/21 07:17:52;;;;;;;0.60;0.60;;;13.30;99.90;;;;;;4371875;32;20112;-64
2021/09/21 07:20:20;;;;;;;1.07;0.97;;;13.30;99.90;;;;;;4385643;32;20101;-65
2021/09/21 07:22:45;;;;;;;0.37;0.37;;;13.40;99.90;;;;;;4370951;32;20041;-64
2021/09/21 07:25:11;;;;;;;0.77;0.77;;;13.50;99.90;;;;;;4397035;32;20216;-64
2021/09/21 07:27:37;;;;;;;0.40;0.40;;;13.50;99.90;;;;;;4402320;32;20216;-64
2021/09/21 07:30:04;;;;;;;0.30;0.30;;;13.40;99.90;;;;;;4387643;32;20375;-64
2021/09/21 07:32:29;;;;;;;1.55;0.45;;;13.50;99.90;;;;;;4392464;32;20069;-65
2021/09/21 07:34:55;;;;;;;0.45;0.45;;;13.50;99.90;;;;;;4398468;32;20541;-64
2021/09/21 07:37:21;;;;;;;0.40;0.40;;;13.50;99.90;;;;;;4397138;32;20082;-64
2021/09/21 07:39:47;;;;;;;0.70;0.70;;;13.70;99.90;;;;;;4399809;32;20121;-63
2021/09/21 07:42:14;;;;;;;0.50;0.43;;;13.70;99.90;;;;;;4396581;32;20085;-64
2021/09/21 07:44:39;;;;;;;0.30;0.30;;;13.80;99.90;;;;;;4400617;32;20084;-63
2021/09/21 07:47:05;;;;;;;3.10;0.50;;;13.80;99.90;;;;;;4398381;32;20492;-64
2021/09/21 07:49:30;;;;;;;0.55;0.43;;;13.90;99.90;;;;;;4399350;32;20121;-63
2021/09/21 07:51:56;;;;;;;0.40;0.40;;;13.90;99.90;;;;;;4393713;32;20193;-63
2021/09/21 07:54:24;;;;;;;0.30;0.30;;;13.90;99.90;;;;;;4391826;32;20184;-63
2021/09/21 07:56:49;;;;;;;0.37;0.37;;;14.00;99.90;;;;;;4398722;32;20650;-63
2021/09/21 07:59:15;;;;;;;0.68;0.40;;;14.00;99.90;;;;;;4402351;32;20102;-64
2021/09/21 08:01:41;;;;;;;0.35;0.32;;;14.00;99.90;;;;;;4387348;32;20080;-63
2021/09/21 08:04:06;;;;;;;2.67;0.98;;;14.00;99.90;;;;;;4385473;32;20392;-63
2021/09/21 08:06:32;;;;;;;0.40;0.40;;;14.10;99.90;;;;;;4402591;32;20065;-63
2021/09/21 08:08:58;;;;;;;0.57;0.57;;;14.10;99.90;;;;;;4383546;32;21054;-63
2021/09/21 08:11:24;;;;;;;0.55;0.55;;;14.20;99.90;;;;;;4386853;32;20062;-63
2021/09/21 08:13:49;;;;;;;0.40;0.40;;;14.20;99.90;;;;;;4390008;32;20097;-64
2021/09/21 08:16:15;;;;;;;0.30;0.30;;;14.20;99.90;;;;;;4379694;32;20173;-64
2021/09/21 08:18:41;;;;;;;1.12;0.60;;;14.30;99.90;;;;;;4396672;32;20069;-64
2021/09/21 08:21:06;;;;;;;0.43;0.43;;;14.40;99.90;;;;;;4388340;32;20081;-64
2021/09/21 08:23:32;;;;;;;0.40;0.40;;;14.40;99.90;;;;;;4391909;32;20137;-64
2021/09/21 08:25:58;;;;;;;0.30;0.30;;;14.40;99.90;;;;;;4392605;32;20078;-64
2021/09/21 08:28:23;;;;;;;0.30;0.30;;;14.50;99.90;;;;;;4400814;32;20086;-64
2021/09/21 08:30:49;;;;;;;6.40;0.57;;;14.50;99.90;;;;;;4408360;32;20391;-65
2021/09/21 08:33:14;;;;;;;0.30;0.30;;;14.50;99.90;;;;;;4391750;32;20519;-65
2021/09/21 08:35:40;;;;;;;0.52;0.47;;;14.40;99.90;;;;;;4393964;32;20084;-65
2021/09/21 08:38:05;;;;;;;0.30;0.30;;;14.50;99.90;;;;;;4406458;32;20070;-64
2021/09/21 08:40:31;;;;;;;0.30;0.30;;;14.50;99.90;;;;;;4389278;32;20214;-64
2021/09/21 08:42:58;;;;;;;0.25;0.25;;;14.70;99.90;;;;;;4408008;32;20910;-64
2021/09/21 08:45:23;;;;;;;0.30;0.30;;;14.70;99.90;;;;;;4403548;32;20077;-64
2021/09/21 08:47:49;;;;;;;0.30;0.30;;;14.90;99.90;;;;;;4404143;32;20077;-64
2021/09/21 08:50:15;;;;;;;0.30;0.30;;;15.10;99.90;;;;;;4401205;32;20076;-64
2021/09/21 08:52:41;;;;;;;0.68;0.68;;;15.10;99.90;;;;;;4401374;32;20589;-64
2021/09/21 08:55:09;;;;;;;0.32;0.32;;;15.10;99.90;;;;;;4398110;32;20085;-64
2021/09/21 08:57:36;;;;;;;0.40;0.40;;;15.00;99.90;;;;;;4383531;32;20089;-64
2021/09/21 09:00:03;;;;;;;0.40;0.40;;;15.00;99.90;;;;;;4383174;32;20679;-64
2021/09/21 09:02:28;;;;;;;0.40;0.40;;;15.00;99.90;;;;;;4401931;32;20073;-64
2021/09/21 09:04:59;;;;;;;0.50;0.50;;;15.00;99.90;;;;;;4385573;32;20111;-64
2021/09/21 09:07:25;;;;;;;2.12;0.62;;;15.10;99.90;;;;;;4403292;32;20073;-63
2021/09/21 09:10:00;;;;;;;0.40;0.40;;;15.20;99.90;;;;;;4394732;32;20287;-63
2021/09/21 09:12:32;;;;;;;0.30;0.30;;;15.30;99.90;;;;;;4386291;32;20073;-63
2021/09/21 09:14:57;;;;;;;0.85;0.77;;;15.30;99.90;;;;;;4382815;32;20165;-63
2021/09/21 09:17:23;;;;;;;0.30;0.30;;;15.30;99.90;;;;;;4388385;32;20139;-63
2021/09/21 09:19:50;;;;;;;0.40;0.40;;;15.30;99.90;;;;;;4399802;32;20448;-63
2021/09/21 09:22:26;;;;;;;0.30;0.30;;;15.30;99.90;;;;;;4399043;32;20504;-63
2021/09/21 09:24:55;;;;;;;0.40;0.40;;;15.40;99.90;;;;;;4386929;32;20105;-63
2021/09/21 09:27:42;;;;;;;0.35;0.35;;;15.50;99.90;;;;;;4406023;32;20066;-63
2021/09/21 09:30:13;;;;;;;0.70;0.70;;;15.50;99.90;;;;;;4380353;32;20145;-64
2021/09/21 09:32:46;;;;;;;;;;;15.60;99.90;;;;;;4386853;32;20081;-64
2021/09/21 09:35:22;;;;;;;9.90;0.47;;;15.60;99.90;;;;;;4396498;32;19954;-64
2021/09/21 09:37:48;;;;;;;0.40;0.40;;;15.60;99.90;;;;;;4389518;32;20121;-64
2021/09/21 09:40:14;;;;;;;4.25;0.75;;;15.50;99.90;;;;;;4392670;32;20067;-64
2021/09/21 09:42:41;;;;;;;0.30;0.30;;;15.50;99.90;;;;;;4402699;32;20169;-64
2021/09/21 09:45:08;;;;;;;0.50;0.50;;;15.60;99.90;;;;;;4400628;32;20094;-64
2021/09/21 09:47:48;;;;;;;0.98;0.73;;;15.60;99.90;;;;;;4401270;32;20073;-64
2021/09/21 09:50:15;;;;;;;0.40;0.40;;;15.60;99.90;;;;;;4376040;32;20087;-65
2021/09/21 09:52:40;;;;;;;0.30;0.30;;;15.60;99.90;;;;;;4399599;32;20069;-64
2021/09/21 09:55:06;;;;;;;1.02;0.95;;;15.60;99.90;;;;;;4403140;32;20093;-64
2021/09/21 09:57:33;;;;;;;2.20;1.10;;;15.70;99.90;;;;;;4402680;32;20554;-64
2021/09/21 09:59:59;;;;;;;0.80;0.70;;;15.80;99.90;;;;;;4385537;32;20058;-64
2021/09/21 10:02:26;;;;;;;0.40;0.40;;;15.80;99.90;;;;;;4399917;32;20748;-64
2021/09/21 10:04:52;;;;;;;0.37;0.37;;;15.90;99.90;;;;;;4400911;32;20097;-64
2021/09/21 10:07:18;;;;;;;0.40;0.40;;;16.00;99.90;;;;;;4401114;32;20265;-64
2021/09/21 10:09:44;;;;;;;0.40;0.40;;;16.10;99.90;;;;;;4401857;32;20393;-64
2021/09/21 10:12:11;;;;;;;0.55;0.55;;;16.10;99.90;;;;;;4404578;32;20522;-64
2021/09/21 10:14:40;;;;;;;0.30;0.30;;;16.10;99.90;;;;;;4386474;32;20071;-64
2021/09/21 10:17:07;;;;;;;11.07;0.65;;;16.20;99.90;;;;;;4387037;32;20368;-64
2021/09/21 10:19:36;;;;;;;30.75;2.58;;;16.20;99.90;;;;;;4399438;32;20085;-64
2021/09/21 10:22:03;;;;;;;2.58;0.50;;;16.20;99.90;;;;;;4400489;32;20393;-65
2021/09/21 10:24:39;;;;;;;2.17;0.50;;;16.20;99.90;;;;;;4401428;32;20078;-64
2021/09/21 10:27:08;;;;;;;0.60;0.45;;;16.30;99.90;;;;;;4380492;32;20706;-65
2021/09/21 10:29:35;;;;;;;1.75;0.88;;;16.30;99.90;;;;;;4397250;32;20307;-64
2021/09/21 10:32:08;;;;;;;4.75;1.67;;;16.50;99.90;;;;;;4387365;32;20102;-64
2021/09/21 10:34:43;;;;;;;0.37;0.37;;;16.50;99.90;;;;;;4406311;32;20069;-67
2021/09/21 10:37:09;;;;;;;9.88;3.17;;;16.50;99.90;;;;;;4378673;32;20098;-64
2021/09/21 10:39:35;;;;;;;0.62;0.32;;;16.60;99.90;;;;;;4393704;32;20142;-65
2021/09/21 10:42:06;;;;;;;0.40;0.40;;;16.80;99.90;;;;;;4382565;32;20197;-64
2021/09/21 10:44:33;;;;;;;1.10;0.43;;;16.70;99.90;;;;;;4391258;32;20161;-64
2021/09/21 10:47:03;;;;;;;3.00;0.40;;;16.80;99.90;;;;;;4375374;32;20086;-65
2021/09/21 10:49:35;;;;;;;0.60;0.60;;;16.90;99.90;;;;;;4388339;32;20350;-65
2021/09/21 10:52:04;;;;;;;0.40;0.40;;;16.90;99.90;;;;;;4379517;32;20094;-65
2021/09/21 10:54:33;;;;;;;0.40;0.40;;;16.80;99.90;;;;;;4399831;32;20053;-65
2021/09/21 10:57:17;;;;;;;0.30;0.30;;;16.50;99.90;;;;;;4390540;32;20069;-65
2021/09/21 11:00:06;;;;;;;0.30;0.30;;;16.10;99.90;;;;;;4382054;32;20078;-65
2021/09/21 11:02:37;;;;;;;0.40;0.40;;;15.90;99.90;;;;;;4385603;32;20086;-64
2021/09/21 11:05:05;;;;;;;0.30;0.30;;;15.70;99.90;;;;;;4404467;32;20066;-63
2021/09/21 11:07:31;;;;;;;0.30;0.30;;;15.80;99.90;;;;;;4396519;32;21326;-63
2021/09/21 11:09:57;;;;;;;8.93;1.05;;;15.90;99.90;;;;;;4399591;32;20057;-64
2021/09/21 11:12:25;;;;;;;0.30;0.30;;;16.00;99.90;;;;;;4395686;32;20062;-64
2021/09/21 11:14:54;;;;;;;1.65;1.15;;;15.90;99.90;;;;;;4400424;32;20062;-64
2021/09/21 11:17:22;;;;;;;0.40;0.40;;;15.80;99.90;;;;;;4387004;32;20078;-64
2021/09/21 11:19:52;;;;;;;0.40;0.40;;;15.80;99.90;;;;;;4402621;32;20087;-64
2021/09/21 11:22:22;;;;;;;0.40;0.40;;;15.80;99.90;;;;;;4398844;32;20455;-64
2021/09/21 11:24:48;;;;;;;0.40;0.40;;;15.80;99.90;;;;;;4396333;32;20427;-64
2021/09/21 11:27:14;;;;;;;0.40;0.40;;;15.90;99.90;;;;;;4380337;32;20070;-63
2021/09/21 11:29:40;;;;;;;3.25;0.40;;;15.90;99.90;;;;;;4380186;32;20124;-63
2021/09/21 11:32:18;;;;;;;0.40;0.40;;;15.90;99.90;;;;;;4374435;32;20160;-64
2021/09/21 11:34:45;;;;;;;4.05;1.40;;;15.90;99.90;;;;;;4396229;32;20062;-64
2021/09/21 11:37:11;;;;;;;0.30;0.30;;;16.00;99.90;;;;;;4377085;32;20085;-63
2021/09/21 11:39:38;;;;;;;0.40;0.40;;;16.00;99.90;;;;;;4393698;32;20247;-64
2021/09/21 11:42:03;;;;;;;0.52;0.52;;;15.90;99.90;;;;;;4364582;32;20315;-63
2021/09/21 11:44:38;;;;;;;0.40;0.40;;;15.80;99.90;;;;;;4389978;32;20101;-65
2021/09/21 11:47:03;;;;;;;0.40;0.40;;;15.80;99.90;;;;;;4393755;32;20550;-65
2021/09/21 11:49:29;;;;;;;0.50;0.50;;;16.00;99.90;;;;;;4394539;32;20085;-65
2021/09/21 11:51:55;;;;;;;1.17;0.43;;;15.90;99.90;;;;;;4395117;32;20077;-65
2021/09/21 11:54:20;;;;;;;0.30;0.30;;;15.90;99.90;;;;;;4378392;32;20106;-63
2021/09/21 11:56:47;;;;;;;0.30;0.30;;;15.90;99.90;;;;;;4400570;32;20661;-64
2021/09/21 11:59:17;;;;;;;3.42;1.27;;;15.90;99.90;;;;;;4398288;32;20054;-65
2021/09/21 12:01:48;;;;;;;0.50;0.50;;;15.90;99.90;;;;;;4397000;32;20173;-64
2021/09/21 12:04:14;;;;;;;0.40;0.40;;;15.80;99.90;;;;;;4397528;32;20152;-65
2021/09/21 12:06:39;;;;;;;0.40;0.40;;;15.80;99.90;;;;;;4399945;32;20065;-64
2021/09/21 12:09:06;;;;;;;0.85;0.85;;;15.90;99.90;;;;;;4397582;32;20104;-64
2021/09/21 12:11:36;;;;;;;0.30;0.30;;;15.90;99.90;;;;;;4395681;32;20090;-65
2021/09/21 12:14:03;;;;;;;0.75;0.75;;;15.80;99.90;;;;;;4387644;32;20613;-65
2021/09/21 12:16:29;;;;;;;0.85;0.50;;;15.80;99.90;;;;;;4401402;32;20106;-64
2021/09/21 12:18:56;;;;;;;0.30;0.30;;;15.90;99.90;;;;;;4381938;32;20097;-64
2021/09/21 12:21:23;;;;;;;0.30;0.30;;;15.90;99.90;;;;;;4385839;32;20519;-64
2021/09/21 12:23:50;;;;;;;0.73;0.60;;;15.90;99.90;;;;;;4396397;32;20193;-64
2021/09/21 12:26:18;;;;;;;0.47;0.47;;;16.00;99.90;;;;;;4382898;32;20154;-65
2021/09/21 12:28:48;;;;;;;0.70;0.60;;;15.80;99.90;;;;;;4379700;32;20062;-65
2021/09/21 12:31:21;;;;;;;0.40;0.40;;;15.80;99.90;;;;;;4393374;32;20098;-65
2021/09/21 12:33:48;;;;;;;0.30;0.30;;;15.80;99.90;;;;;;4386089;32;20061;-64
2021/09/21 12:36:24;;;;;;;1.25;0.70;;;15.80;99.90;;;;;;4381781;32;20150;-64
2021/09/21 12:39:09;;;;;;;0.50;0.50;;;15.80;99.90;;;;;;4393637;32;20114;-65
2021/09/21 12:41:38;;;;;;;0.30;0.30;;;15.90;99.90;;;;;;4395569;32;20129;-64
2021/09/21 12:44:07;;;;;;;0.40;0.40;;;15.90;99.90;;;;;;4385568;32;20429;-64
2021/09/21 12:46:33;;;;;;;0.60;0.60;;;15.80;99.90;;;;;;4397338;32;20066;-64
2021/09/21 12:48:59;;;;;;;0.30;0.30;;;15.80;99.90;;;;;;4390749;32;20738;-64
2021/09/21 12:51:36;;;;;;;0.35;0.35;;;15.90;99.90;;;;;;4374872;32;20251;-64
2021/09/21 12:54:04;;;;;;;0.70;0.70;;;15.80;99.90;;;;;;4406752;32;20904;-64